Time;durP1;ratioP1;P1;durP2;ratioP2;P2;SDS_P1;SDS_P2;PMS_P1;PMS_P2;Temp;Humidity;BMP_temperature;BMP_pressure;BME280_temperature;BME280_humidity;BME280_pressure;Samples;Min_cycle;Max_cycle;Signal;HPM_P1;HPM_P2
2023/04/05 00:02:12;;;;;;;20.30;11.63;;;;;;;-2.55;97.23;94218.09;4991460;28;20471;-59
2023/04/05 00:04:49;;;;;;;18.48;9.68;;;;;;;-2.59;97.59;94222.53;4990141;28;20167;-59
2023/04/05 00:07:17;;;;;;;18.00;9.90;;;;;;;-2.69;99.59;94216.41;4976302;28;20412;-58
2023/04/05 00:09:45;;;;;;;15.80;9.37;;;;;;;-2.73;100.00;94214.69;4971659;28;20421;-59
2023/04/05 00:12:12;;;;;;;18.33;9.85;;;;;;;-2.68;100.00;94217.19;4990730;28;20517;-59
2023/04/05 00:14:39;;;;;;;19.27;10.13;;;;;;;-2.66;100.00;94213.06;4997858;28;20065;-59
2023/04/05 00:17:06;;;;;;;16.48;8.95;;;;;;;-2.69;100.00;94205.66;4990708;28;20375;-59
2023/04/05 00:19:36;;;;;;;17.02;9.43;;;;;;;-2.67;100.00;94211.50;4990146;28;20042;-60
2023/04/05 00:22:04;;;;;;;16.80;9.30;;;;;;;-2.67;100.00;94203.44;4990818;28;20046;-59
2023/04/05 00:24:32;;;;;;;40.65;17.17;;;;;;;-2.68;100.00;94201.84;4989894;28;20054;-59
2023/04/05 00:26:59;;;;;;;19.13;10.00;;;;;;;-2.85;100.00;94199.28;4990435;28;20417;-60
2023/04/05 00:29:27;;;;;;;17.73;9.60;;;;;;;-2.80;100.00;94199.06;4990108;28;20112;-59
2023/04/05 00:31:54;;;;;;;17.63;9.10;;;;;;;-2.75;100.00;94196.22;4990384;28;20054;-61
2023/04/05 00:34:21;;;;;;;18.43;9.87;;;;;;;-2.72;100.00;94194.78;4989653;28;20042;-59
2023/04/05 00:36:48;;;;;;;17.73;9.70;;;;;;;-2.70;100.00;94189.88;4989925;28;20096;-59
2023/04/05 00:39:15;;;;;;;21.77;11.00;;;;;;;-2.70;100.00;94189.88;4989962;28;20044;-61
2023/04/05 00:41:43;;;;;;;25.73;13.70;;;;;;;-2.74;100.00;94191.63;4990132;28;20047;-60
2023/04/05 00:44:13;;;;;;;25.52;13.48;;;;;;;-2.70;100.00;94192.53;4989801;28;20042;-58
2023/04/05 00:46:40;;;;;;;20.60;10.63;;;;;;;-2.73;100.00;94188.63;4990283;28;20058;-60
2023/04/05 00:49:08;;;;;;;18.83;9.48;;;;;;;-2.68;100.00;94193.78;4990200;28;20054;-60
2023/04/05 00:51:35;;;;;;;18.92;10.82;;;;;;;-2.74;100.00;94188.94;4989363;28;20042;-60
2023/04/05 00:54:02;;;;;;;23.38;12.25;;;;;;;-2.77;100.00;94190.38;4972516;28;20092;-60
2023/04/05 00:56:29;;;;;;;22.25;11.57;;;;;;;-2.72;100.00;94184.81;4988754;28;20046;-59
2023/04/05 00:58:56;;;;;;;21.43;11.80;;;;;;;-3.15;100.00;94187.72;4989922;28;20053;-61
2023/04/05 01:01:25;;;;;;;23.02;11.68;;;;;;;-3.05;100.00;94182.75;4989588;28;20058;-60
2023/04/05 01:04:01;;;;;;;18.35;9.43;;;;;;;-2.97;100.00;94183.84;4989407;28;20054;-60
2023/04/05 01:07:11;;;;;;;20.00;9.35;;;;;;;-2.95;100.00;94184.31;4989441;28;20054;-61
2023/04/05 01:09:47;;;;;;;24.23;10.93;;;;;;;-2.83;100.00;94167.50;4989291;28;20047;-60
2023/04/05 01:12:18;;;;;;;19.57;10.13;;;;;;;-2.81;100.00;94173.34;4989185;28;20046;-59
2023/04/05 01:14:50;;;;;;;19.58;10.73;;;;;;;-2.92;100.00;94172.13;4989654;28;20491;-60
2023/04/05 01:17:22;;;;;;;20.58;10.55;;;;;;;-2.77;100.00;94171.56;4989284;28;20046;-60
2023/04/05 01:19:59;;;;;;;20.52;10.32;;;;;;;-2.66;100.00;94169.28;4989740;28;20049;-60
2023/04/05 01:22:53;;;;;;;19.52;10.55;;;;;;;-2.82;100.00;94161.81;4977021;28;20049;-60
2023/04/05 01:25:27;;;;;;;19.77;10.37;;;;;;;-2.84;100.00;94160.53;4988836;28;20053;-60
2023/04/05 01:28:31;;;;;;;18.38;9.90;;;;;;;-2.93;100.00;94154.44;4989627;28;20152;-60
2023/04/05 01:31:25;;;;;;;19.02;9.77;;;;;;;-2.88;100.00;94151.56;4988675;28;20599;-60
2023/04/05 01:34:01;;;;;;;17.73;9.45;;;;;;;-2.82;100.00;94145.69;4988387;28;21586;-60
2023/04/05 01:36:30;;;;;;;17.63;9.52;;;;;;;-2.73;100.00;94147.53;4988663;28;20392;-60
2023/04/05 01:39:01;;;;;;;21.80;9.53;;;;;;;-2.70;100.00;94136.13;4989457;28;20038;-60
2023/04/05 01:41:28;;;;;;;18.13;9.32;;;;;;;-2.65;100.00;94139.44;4988420;28;20050;-59
2023/04/05 01:43:55;;;;;;;17.10;9.50;;;;;;;-2.69;100.00;94137.72;4989396;28;20050;-60
2023/04/05 01:46:22;;;;;;;19.63;10.25;;;;;;;-2.69;100.00;94130.44;4988870;28;20058;-60
2023/04/05 01:48:49;;;;;;;20.63;11.02;;;;;;;-2.69;100.00;94133.13;4972163;28;20048;-60
2023/04/05 01:51:15;;;;;;;17.80;9.83;;;;;;;-2.64;100.00;94129.47;4989040;28;20217;-59
2023/04/05 01:53:42;;;;;;;18.33;9.90;;;;;;;-2.71;100.00;94129.97;4989219;28;20097;-60
2023/04/05 01:56:09;;;;;;;19.10;9.48;;;;;;;-2.86;100.00;94138.59;4989308;28;20388;-60
2023/04/05 01:58:35;;;;;;;16.02;8.90;;;;;;;-2.76;100.00;94126.69;4988571;28;20092;-60
2023/04/05 02:01:02;;;;;;;16.80;8.93;;;;;;;-2.82;100.00;94126.09;4989130;28;20043;-60
2023/04/05 02:03:29;;;;;;;16.50;9.03;;;;;;;-2.74;100.00;94124.47;4988416;28;20046;-59
2023/04/05 02:05:56;;;;;;;18.15;8.90;;;;;;;-2.73;100.00;94124.16;4989011;28;20417;-60
2023/04/05 02:08:23;;;;;;;18.52;9.77;;;;;;;-2.78;100.00;94118.19;4991536;28;20042;-59
2023/04/05 02:10:52;;;;;;;18.23;9.80;;;;;;;-2.82;100.00;94120.72;4993050;28;20113;-59
2023/04/05 02:13:21;;;;;;;18.25;9.55;;;;;;;-2.85;100.00;94130.22;4992541;28;20495;-60
2023/04/05 02:15:49;;;;;;;19.57;10.57;;;;;;;-2.86;100.00;94115.25;4993025;28;20108;-60
2023/04/05 02:18:21;;;;;;;19.48;9.88;;;;;;;-2.78;100.00;94115.50;4992306;28;20047;-60
2023/04/05 02:20:49;;;;;;;19.38;9.60;;;;;;;-2.76;100.00;94110.59;4992864;28;20179;-59
2023/04/05 02:23:18;;;;;;;19.98;10.05;;;;;;;-2.75;100.00;94110.25;4992258;28;20108;-59
2023/04/05 02:25:45;;;;;;;18.27;9.75;;;;;;;-2.84;100.00;94104.97;4992525;28;20056;-60
2023/04/05 02:28:11;;;;;;;17.30;9.47;;;;;;;-2.82;100.00;94107.28;4992721;28;20043;-60
2023/04/05 02:30:38;;;;;;;18.83;10.00;;;;;;;-2.84;100.00;94106.84;4991828;28;22570;-59
2023/04/05 02:33:08;;;;;;;16.20;9.27;;;;;;;-2.79;100.00;94100.50;4991833;28;20042;-59
2023/04/05 02:35:35;;;;;;;17.38;8.90;;;;;;;-2.81;100.00;94101.59;4991995;28;20038;-60
2023/04/05 02:38:03;;;;;;;19.05;9.60;;;;;;;-2.76;100.00;94097.16;4973100;28;20054;-60
2023/04/05 02:40:30;;;;;;;16.00;8.67;;;;;;;-2.73;100.00;94091.91;4991831;28;20478;-60
2023/04/05 02:42:57;;;;;;;15.77;8.80;;;;;;;-2.77;100.00;94096.38;4979715;28;20050;-60
2023/04/05 02:45:24;;;;;;;16.52;8.68;;;;;;;-2.86;100.00;94087.56;4974281;28;20128;-59
2023/04/05 02:47:50;;;;;;;16.38;9.32;;;;;;;-2.98;100.00;94080.22;4992165;28;20054;-59
2023/04/05 02:50:19;;;;;;;18.00;9.45;;;;;;;-2.91;100.00;94080.50;4991428;28;20514;-60
2023/04/05 02:52:49;;;;;;;19.20;9.50;;;;;;;-2.92;100.00;94083.50;4975268;28;20046;-60
2023/04/05 02:55:16;;;;;;;17.55;9.10;;;;;;;-2.94;100.00;94081.13;4991492;28;20054;-60
2023/04/05 02:57:43;;;;;;;16.65;8.77;;;;;;;-2.95;100.00;94079.59;4992042;28;20092;-60
2023/04/05 03:00:13;;;;;;;19.13;9.18;;;;;;;-2.96;100.00;94080.69;4991869;28;20774;-62
2023/04/05 03:02:39;;;;;;;17.80;9.20;;;;;;;-3.01;100.00;94081.66;5006969;28;20928;-60
2023/04/05 03:05:06;;;;;;;17.20;9.37;;;;;;;-3.12;100.00;94072.44;4992026;28;20063;-60
2023/04/05 03:07:34;;;;;;;17.42;9.40;;;;;;;-3.14;100.00;94068.47;4991738;28;20054;-60
2023/04/05 03:10:01;;;;;;;17.33;8.98;;;;;;;-3.14;100.00;94073.84;4972066;28;20051;-59
2023/04/05 03:12:28;;;;;;;19.77;10.23;;;;;;;-3.22;100.00;94070.91;4991158;28;20472;-59
2023/04/05 03:14:55;;;;;;;23.50;12.07;;;;;;;-3.25;100.00;94068.06;4991869;28;20455;-60
2023/04/05 03:17:21;;;;;;;23.07;10.77;;;;;;;-3.37;100.00;94074.13;4991223;28;20039;-59
2023/04/05 03:19:48;;;;;;;19.95;11.18;;;;;;;-3.36;100.00;94069.53;4991095;28;20044;-60
2023/04/05 03:22:15;;;;;;;18.20;9.65;;;;;;;-3.48;100.00;94070.22;4990971;28;20064;-59
2023/04/05 03:24:42;;;;;;;19.10;11.35;;;;;;;-3.55;100.00;94070.75;4991522;28;20042;-60
2023/04/05 03:27:08;;;;;;;18.65;10.30;;;;;;;-3.67;100.00;94068.72;4974392;28;20050;-60
2023/04/05 03:29:35;;;;;;;18.43;10.17;;;;;;;-3.66;100.00;94075.69;4991013;28;20141;-60
2023/04/05 03:32:02;;;;;;;18.55;10.35;;;;;;;-3.66;100.00;94072.22;4991564;28;20435;-60
2023/04/05 03:34:29;;;;;;;21.80;10.82;;;;;;;-3.67;100.00;94068.72;4990664;28;20056;-59
2023/04/05 03:36:55;;;;;;;21.25;11.07;;;;;;;-3.67;100.00;94067.94;4983591;28;20065;-60
2023/04/05 03:39:22;;;;;;;21.05;10.80;;;;;;;-3.69;100.00;94072.84;4971487;28;20045;-60
2023/04/05 03:41:49;;;;;;;17.90;10.17;;;;;;;-3.73;100.00;94071.91;4985169;28;20045;-60
2023/04/05 03:44:15;;;;;;;20.77;10.48;;;;;;;-3.78;100.00;94069.41;4990769;28;20373;-59
2023/04/05 03:46:42;;;;;;;22.27;11.00;;;;;;;-3.90;100.00;94078.91;4991366;28;20446;-60
2023/04/05 03:49:09;;;;;;;20.17;10.90;;;;;;;-3.86;100.00;94071.81;4991103;28;20419;-60
2023/04/05 03:51:36;;;;;;;19.75;11.18;;;;;;;-3.81;100.00;94076.19;4990344;28;20065;-59
2023/04/05 03:54:03;;;;;;;20.40;10.60;;;;;;;-3.85;100.00;94073.38;4991007;28;20327;-60
2023/04/05 03:56:31;;;;;;;20.73;10.85;;;;;;;-3.92;100.00;94073.09;4990530;28;20126;-60
2023/04/05 03:58:57;;;;;;;19.27;10.68;;;;;;;-4.15;100.00;94064.47;4973790;28;20061;-59
2023/04/05 04:01:24;;;;;;;23.48;11.93;;;;;;;-4.07;100.00;94078.94;4990496;28;20060;-60
2023/04/05 04:03:51;;;;;;;22.02;11.35;;;;;;;-4.04;100.00;94081.78;4990987;28;20046;-60
2023/04/05 04:06:17;;;;;;;28.80;12.30;;;;;;;-4.02;100.00;94074.22;4990295;28;20058;-59
2023/04/05 04:08:45;;;;;;;25.52;10.88;;;;;;;-4.21;100.00;94079.91;4990662;28;20065;-60
2023/04/05 04:11:12;;;;;;;24.10;12.05;;;;;;;-4.18;100.00;94073.16;4990654;28;20054;-60
2023/04/05 04:13:38;;;;;;;25.70;12.07;;;;;;;-4.13;100.00;94074.88;4990217;28;20045;-60
2023/04/05 04:16:05;;;;;;;24.13;12.20;;;;;;;-4.16;100.00;94080.88;4990451;28;20042;-60
2023/04/05 04:18:32;;;;;;;25.07;12.20;;;;;;;-4.21;100.00;94082.59;4990154;28;20042;-60
2023/04/05 04:21:05;;;;;;;21.27;11.30;;;;;;;-4.33;100.00;94077.09;4990421;28;20043;-60
2023/04/05 04:23:37;;;;;;;22.17;11.30;;;;;;;-4.48;100.00;94073.03;4989860;28;20058;-60
2023/04/05 04:26:04;;;;;;;21.13;11.32;;;;;;;-4.38;100.00;94071.91;4989183;28;20042;-60
2023/04/05 04:28:33;;;;;;;20.98;10.70;;;;;;;-4.40;100.00;94076.03;4989792;28;20054;-60
2023/04/05 04:31:03;;;;;;;22.53;11.47;;;;;;;-4.55;100.00;94070.03;4990456;28;20558;-60
2023/04/05 04:33:30;;;;;;;23.92;11.93;;;;;;;-4.73;100.00;94065.78;4989709;28;20054;-60
2023/04/05 04:35:57;;;;;;;22.30;10.15;;;;;;;-4.53;100.00;94067.03;4989064;28;20648;-59
2023/04/05 04:38:24;;;;;;;20.58;10.45;;;;;;;-4.43;100.00;94069.41;4972057;28;20047;-60
2023/04/05 04:40:52;;;;;;;18.80;9.98;;;;;;;-4.45;100.00;94067.06;4977708;28;20119;-59
2023/04/05 04:43:26;;;;;;;19.80;10.27;;;;;;;-4.60;100.00;94062.16;4989788;28;20112;-60
2023/04/05 04:45:55;;;;;;;21.38;10.35;;;;;;;-4.63;100.00;94054.75;4990152;28;20069;-60
2023/04/05 04:48:22;;;;;;;20.17;10.32;;;;;;;-4.66;100.00;94061.53;4989749;28;20042;-60
2023/04/05 04:50:48;;;;;;;21.73;11.07;;;;;;;-4.62;100.00;94065.16;4990162;28;20046;-62
2023/04/05 04:53:18;;;;;;;25.13;13.35;;;;;;;-4.63;100.00;94074.31;4989456;28;20073;-59
2023/04/05 04:55:48;;;;;;;22.30;11.50;;;;;;;-4.51;100.00;94067.50;4990106;28;20049;-60
2023/04/05 04:58:16;;;;;;;23.15;11.07;;;;;;;-4.43;100.00;94062.16;4989175;28;20042;-60
2023/04/05 05:00:43;;;;;;;22.08;11.15;;;;;;;-4.40;100.00;94063.41;4989855;28;20046;-60
2023/04/05 05:03:11;;;;;;;23.23;11.43;;;;;;;-4.34;100.00;94062.16;4989852;28;20396;-60
2023/04/05 05:05:46;;;;;;;24.73;12.40;;;;;;;-4.27;100.00;94062.44;5004814;28;20805;-60
2023/04/05 05:08:12;;;;;;;26.70;12.63;;;;;;;-4.25;100.00;94065.56;4989930;28;20057;-60
2023/04/05 05:10:40;;;;;;;22.23;11.73;;;;;;;-4.23;100.00;94076.75;4996574;28;20887;-60
2023/04/05 05:13:08;;;;;;;24.23;11.73;;;;;;;-4.22;100.00;94081.03;4989703;28;20042;-60
2023/04/05 05:15:34;;;;;;;22.35;11.38;;;;;;;-4.18;100.00;94083.88;4988907;28;20046;-60
2023/04/05 05:18:02;;;;;;;21.63;11.73;;;;;;;-4.13;100.00;94086.38;4975969;28;20480;-61
2023/04/05 05:20:29;;;;;;;26.10;11.63;;;;;;;-4.11;100.00;94086.06;4988042;28;20383;-60
2023/04/05 05:22:55;;;;;;;28.40;13.20;;;;;;;-4.08;100.00;94091.56;4988643;28;20057;-60
2023/04/05 05:25:22;;;;;;;25.40;11.90;;;;;;;-3.93;100.00;94095.63;4988363;28;20145;-60
2023/04/05 05:27:49;;;;;;;28.55;12.27;;;;;;;-4.06;100.00;94089.38;4988770;28;20081;-59
2023/04/05 05:30:17;;;;;;;26.90;11.55;;;;;;;-3.95;100.00;94086.34;4988263;28;20080;-60
2023/04/05 05:32:44;;;;;;;24.37;12.47;;;;;;;-3.87;100.00;94096.25;4987737;28;20050;-60
2023/04/05 05:35:11;;;;;;;23.33;11.77;;;;;;;-3.81;100.00;94092.28;4988707;28;20050;-60
2023/04/05 05:37:38;;;;;;;23.88;11.70;;;;;;;-3.78;100.00;94090.84;4987767;28;20030;-60
2023/04/05 05:40:06;;;;;;;23.45;12.23;;;;;;;-3.75;100.00;94091.00;4988172;28;20580;-60
2023/04/05 05:42:32;;;;;;;26.20;13.15;;;;;;;-3.69;100.00;94083.59;4990003;28;20073;-60
2023/04/05 05:45:04;;;;;;;29.90;15.03;;;;;;;-3.71;100.00;94083.91;4983477;28;20070;-60
2023/04/05 05:47:31;;;;;;;27.67;13.90;;;;;;;-3.64;100.00;94086.09;4994313;28;20364;-60
2023/04/05 05:49:58;;;;;;;29.63;14.45;;;;;;;-3.61;100.00;94082.75;4994731;28;20060;-60
2023/04/05 05:52:24;;;;;;;27.52;13.30;;;;;;;-3.62;100.00;94083.88;4994286;28;20072;-60
2023/04/05 05:54:51;;;;;;;25.45;12.80;;;;;;;-3.68;100.00;94087.81;4994679;28;20049;-60
2023/04/05 05:57:18;;;;;;;25.70;11.60;;;;;;;-3.57;100.00;94081.00;4994108;28;20051;-61
2023/04/05 05:59:45;;;;;;;23.48;11.88;;;;;;;-3.51;100.00;94086.97;4994877;28;20042;-61
2023/04/05 06:02:12;;;;;;;23.58;12.15;;;;;;;-3.53;100.00;94092.66;4994715;28;20102;-61
2023/04/05 06:04:39;;;;;;;26.02;12.38;;;;;;;-3.46;100.00;94089.47;4981252;28;20155;-61
2023/04/05 06:07:06;;;;;;;23.25;12.32;;;;;;;-3.30;100.00;94084.34;4975778;28;20189;-61
2023/04/05 06:09:34;;;;;;;23.50;12.13;;;;;;;-3.19;100.00;94100.91;4994045;28;20477;-61
2023/04/05 06:12:00;;;;;;;24.55;12.23;;;;;;;-3.12;100.00;94096.59;4994608;28;20410;-61
2023/04/05 06:14:28;;;;;;;22.85;12.57;;;;;;;-3.19;100.00;94103.56;4994315;28;20108;-61
2023/04/05 06:16:56;;;;;;;25.08;13.82;;;;;;;-3.10;100.00;94093.56;4994180;28;20073;-61
2023/04/05 06:19:22;;;;;;;30.20;16.00;;;;;;;-3.49;100.00;94100.88;4994003;28;20042;-60
2023/04/05 06:21:49;;;;;;;28.60;14.63;;;;;;;-3.31;100.00;94093.53;4993507;28;20046;-60
2023/04/05 06:24:16;;;;;;;24.88;12.52;;;;;;;-3.11;100.00;94081.25;4974536;28;20157;-59
2023/04/05 06:26:43;;;;;;;28.27;13.55;;;;;;;-3.09;100.00;94085.19;4975126;28;20410;-59
2023/04/05 06:29:09;;;;;;;24.65;12.50;;;;;;;-2.84;100.00;94090.72;4975559;28;20038;-59
2023/04/05 06:31:37;;;;;;;23.40;12.00;;;;;;;-2.75;100.00;94088.00;4989193;28;20223;-60
2023/04/05 06:34:04;;;;;;;24.63;12.57;;;;;;;-2.79;100.00;94085.16;4985508;28;20154;-60
2023/04/05 06:36:32;;;;;;;26.60;13.85;;;;;;;-3.24;100.00;94081.19;4986397;28;20045;-60
2023/04/05 06:39:00;;;;;;;23.55;12.40;;;;;;;-2.71;100.00;94078.16;4985469;28;20046;-60
2023/04/05 06:41:27;;;;;;;22.65;12.32;;;;;;;-2.46;100.00;94079.84;4993650;28;20049;-60
2023/04/05 06:43:54;;;;;;;27.23;13.13;;;;;;;-2.57;100.00;94080.59;4994127;28;20358;-60
2023/04/05 06:46:22;;;;;;;24.27;11.90;;;;;;;-2.10;100.00;94069.59;4993499;28;20116;-60
2023/04/05 06:48:49;;;;;;;24.65;12.82;;;;;;;-1.83;100.00;94077.06;4994436;28;20181;-60
2023/04/05 06:51:17;;;;;;;22.85;11.95;;;;;;;-1.84;100.00;94080.06;4980809;28;20045;-59
2023/04/05 06:53:43;;;;;;;23.80;11.35;;;;;;;-1.63;100.00;94075.41;4991575;28;20137;-59
2023/04/05 06:56:10;;;;;;;21.13;11.43;;;;;;;-1.53;100.00;94070.69;4990953;28;20476;-60
2023/04/05 06:58:37;;;;;;;20.87;11.43;;;;;;;1.31;90.75;94068.41;4990530;28;20049;-60
2023/04/05 07:01:04;;;;;;;19.63;11.13;;;;;;;2.84;81.20;94069.81;4990925;28;20057;-61
2023/04/05 07:03:31;;;;;;;16.75;10.80;;;;;;;6.32;61.71;94061.59;4990580;28;20127;-61
2023/04/05 07:05:59;;;;;;;17.00;11.57;;;;;;;8.61;50.32;94060.56;4990876;28;20052;-61
2023/04/05 07:08:28;;;;;;;15.82;10.50;;;;;;;8.68;47.68;94057.03;4990472;28;20056;-61
2023/04/05 07:10:54;;;;;;;15.17;9.93;;;;;;;9.75;46.12;94058.13;4977898;28;20054;-59
2023/04/05 07:13:23;;;;;;;14.75;11.05;;;;;;;11.00;40.13;94053.88;4989928;28;20305;-59
2023/04/05 07:15:51;;;;;;;13.85;10.65;;;;;;;13.93;36.20;94050.41;4990687;28;20050;-59
2023/04/05 07:18:18;;;;;;;15.43;10.73;;;;;;;13.71;34.20;94050.19;4989978;28;20490;-59
2023/04/05 07:20:48;;;;;;;14.40;10.60;;;;;;;14.55;32.45;94045.56;4990818;28;20042;-59
2023/04/05 07:23:15;;;;;;;15.50;11.40;;;;;;;14.06;30.68;94058.75;4990441;28;20043;-59
2023/04/05 07:25:42;;;;;;;12.73;9.23;;;;;;;12.37;33.87;94057.06;4985612;28;20045;-59
2023/04/05 07:28:09;;;;;;;12.88;8.95;;;;;;;11.57;33.93;94065.19;4971460;28;20092;-59
2023/04/05 07:30:36;;;;;;;14.30;9.63;;;;;;;12.15;34.17;94067.72;4988983;28;20038;-59
2023/04/05 07:33:03;;;;;;;14.55;10.18;;;;;;;13.43;31.74;94062.69;4979786;28;20137;-59
2023/04/05 07:35:30;;;;;;;10.57;7.97;;;;;;;13.54;30.05;94058.47;4987802;28;20388;-59
2023/04/05 07:37:57;;;;;;;10.50;7.57;;;;;;;13.77;28.15;94054.75;4975008;28;20043;-60
2023/04/05 07:40:23;;;;;;;9.68;7.85;;;;;;;14.96;27.65;94048.75;4975222;28;20034;-59
2023/04/05 07:42:50;;;;;;;10.27;8.52;;;;;;;12.46;30.27;94064.78;4985222;28;20054;-60
2023/04/05 07:45:17;;;;;;;10.02;7.50;;;;;;;12.15;28.48;94059.47;4982382;28;20038;-59
2023/04/05 07:47:45;;;;;;;9.43;7.33;;;;;;;12.37;26.96;94065.31;4990223;28;20058;-59
2023/04/05 07:50:13;;;;;;;8.63;7.50;;;;;;;12.63;26.04;94057.34;4990143;28;20046;-60
2023/04/05 07:52:41;;;;;;;11.02;7.65;;;;;;;14.47;24.97;94068.31;4989364;28;22445;-59
2023/04/05 07:55:09;;;;;;;9.73;7.03;;;;;;;13.23;25.47;94059.97;4989988;28;20055;-59
2023/04/05 07:57:36;;;;;;;9.00;6.40;;;;;;;16.15;23.55;94059.59;4984030;28;20043;-59
2023/04/05 08:00:09;;;;;;;9.63;6.93;;;;;;;16.05;22.47;94060.75;4983343;28;20471;-60
2023/04/05 08:02:35;;;;;;;8.52;6.90;;;;;;;12.45;25.39;94071.47;4989465;28;20042;-59
2023/04/05 08:05:02;;;;;;;10.40;6.88;;;;;;;13.55;24.70;94070.28;4989649;28;20046;-60
2023/04/05 08:07:29;;;;;;;9.02;6.88;;;;;;;12.95;25.83;94067.69;4989139;28;20056;-59
2023/04/05 08:09:58;;;;;;;9.65;7.05;;;;;;;12.64;25.46;94072.69;4989951;28;20053;-60
2023/04/05 08:12:25;;;;;;;8.13;6.70;;;;;;;14.39;25.26;94062.97;4989030;28;20061;-59
2023/04/05 08:14:52;;;;;;;10.00;7.25;;;;;;;13.15;25.13;94060.13;4989521;28;20056;-59
2023/04/05 08:17:19;;;;;;;8.50;6.93;;;;;;;13.49;25.67;94058.97;4976196;28;20051;-60
2023/04/05 08:19:46;;;;;;;8.63;6.60;;;;;;;15.06;23.69;94060.72;4989385;28;20046;-60
2023/04/05 08:22:12;;;;;;;8.30;6.60;;;;;;;14.71;23.56;94064.09;4989470;28;20060;-60
2023/04/05 08:24:39;;;;;;;8.67;6.83;;;;;;;12.38;26.06;94062.16;5004665;28;20616;-60
2023/04/05 08:27:06;;;;;;;9.98;6.93;;;;;;;14.54;24.03;94068.09;4989723;28;20434;-59
2023/04/05 08:29:33;;;;;;;9.85;6.70;;;;;;;12.23;27.22;94066.38;4988821;28;26368;-59
2023/04/05 08:31:59;;;;;;;9.02;6.50;;;;;;;15.16;23.87;94065.91;4989530;28;20314;-59
2023/04/05 08:34:26;;;;;;;9.15;6.50;;;;;;;18.81;20.19;94063.88;4988390;28;20505;-59
2023/04/05 08:36:58;;;;;;;11.23;6.60;;;;;;;15.85;21.58;94055.47;4984831;28;20042;-59
2023/04/05 08:39:25;;;;;;;10.82;6.93;;;;;;;16.18;21.90;94058.72;4973709;28;20057;-60
2023/04/05 08:42:14;;;;;;;8.32;6.78;;;;;;;13.57;23.41;94073.38;4987103;28;20096;-59
2023/04/05 08:44:43;;;;;;;9.25;6.57;;;;;;;15.05;23.13;94071.00;4976819;28;20800;-60
2023/04/05 08:47:14;;;;;;;9.95;6.70;;;;;;;15.52;22.05;94069.56;4989152;28;20380;-60
2023/04/05 08:49:44;;;;;;;8.93;7.43;;;;;;;8.80;29.04;94075.72;4995918;28;20474;-60
2023/04/05 08:52:11;;;;;;;8.65;7.30;;;;;;;11.23;26.26;94076.31;4988953;28;20454;-60
2023/04/05 08:54:38;;;;;;;9.48;7.30;;;;;;;10.32;29.38;94076.75;4988118;28;20581;-60
2023/04/05 08:57:06;;;;;;;8.32;7.18;;;;;;;13.13;25.45;94068.06;4988557;28;20054;-60
2023/04/05 08:59:37;;;;;;;9.40;7.50;;;;;;;13.48;24.23;94076.75;4988419;28;20051;-60
2023/04/05 09:02:13;;;;;;;8.80;7.10;;;;;;;12.91;25.62;94075.25;4988875;28;20050;-60
2023/04/05 09:04:45;;;;;;;11.43;8.18;;;;;;;16.47;22.44;94075.09;5003945;28;20843;-60
2023/04/05 09:07:13;;;;;;;9.00;7.10;;;;;;;16.86;20.62;94072.94;4988892;28;20046;-60
2023/04/05 09:09:44;;;;;;;10.65;7.90;;;;;;;15.79;21.29;94077.41;4987946;28;20745;-61
2023/04/05 09:12:13;;;;;;;9.63;7.72;;;;;;;16.15;21.51;94067.91;4988572;28;20243;-60
2023/04/05 09:14:40;;;;;;;8.70;7.23;;;;;;;13.97;23.43;94073.94;4987824;28;20876;-60
2023/04/05 09:17:07;;;;;;;11.15;8.15;;;;;;;13.68;24.51;94075.88;4987899;28;20050;-61
2023/04/05 09:19:34;;;;;;;8.80;7.72;;;;;;;10.93;25.88;94078.72;4988183;28;20058;-61
2023/04/05 09:22:05;;;;;;;9.60;7.63;;;;;;;16.51;22.15;94064.66;4988762;28;20046;-61
2023/04/05 09:24:40;;;;;;;9.98;7.20;;;;;;;14.10;23.85;94074.00;4987805;28;20057;-60
2023/04/05 09:27:12;;;;;;;10.40;8.13;;;;;;;14.52;23.06;94068.53;4988685;28;20049;-61
2023/04/05 09:29:41;;;;;;;11.70;8.77;;;;;;;15.05;23.08;94071.00;4974649;28;20627;-61
2023/04/05 09:32:10;;;;;;;11.35;8.77;;;;;;;16.14;22.01;94063.59;4988375;28;20066;-61
2023/04/05 09:34:39;;;;;;;8.43;6.88;;;;;;;16.06;21.95;94067.84;4987907;28;20054;-61
2023/04/05 09:37:17;;;;;;;8.85;7.85;;;;;;;15.02;22.67;94076.63;4980094;28;20122;-61
2023/04/05 09:39:45;;;;;;;10.37;8.00;;;;;;;14.82;22.79;94063.00;4969532;28;20431;-60
2023/04/05 09:42:16;;;;;;;10.32;7.50;;;;;;;17.33;20.50;94060.09;5000065;28;20047;-60
2023/04/05 09:44:56;;;;;;;9.25;7.30;;;;;;;15.86;21.60;94051.50;5015224;28;21916;-61
2023/04/05 09:47:29;;;;;;;9.48;7.78;;;;;;;13.16;25.29;94066.44;5007508;28;20048;-61
2023/04/05 09:50:00;;;;;;;8.80;7.28;;;;;;;11.02;26.61;94069.19;5007897;28;20406;-60
2023/04/05 09:52:32;;;;;;;11.13;9.00;;;;;;;12.25;26.14;94065.97;5007472;28;20108;-60
2023/04/05 09:55:05;;;;;;;9.55;7.50;;;;;;;15.00;23.67;94062.47;4990422;28;20046;-61
2023/04/05 09:57:34;;;;;;;10.15;7.93;;;;;;;14.41;22.93;94064.50;5007499;28;20111;-61
2023/04/05 10:00:04;;;;;;;12.98;8.90;;;;;;;15.15;22.98;94067.13;5007464;28;20140;-61
2023/04/05 10:02:38;;;;;;;11.15;9.27;;;;;;;14.10;23.76;94068.47;5006769;28;20045;-61
2023/04/05 10:05:14;;;;;;;10.60;8.43;;;;;;;9.90;27.79;94062.31;5007657;28;20187;-61
2023/04/05 10:07:42;;;;;;;11.27;8.85;;;;;;;9.91;29.17;94072.06;5007086;28;20846;-61
2023/04/05 10:10:11;;;;;;;10.18;7.88;;;;;;;9.62;29.28;94068.03;4992026;28;20068;-60
2023/04/05 10:12:44;;;;;;;9.13;7.70;;;;;;;13.81;24.87;94062.16;4988092;28;20558;-61
2023/04/05 10:15:12;;;;;;;9.85;7.32;;;;;;;17.67;21.06;94050.03;4988150;28;20141;-61
2023/04/05 10:17:57;;;;;;;8.40;7.50;;;;;;;15.57;21.06;94046.88;4987216;28;20061;-61
2023/04/05 10:20:27;;;;;;;8.95;7.40;;;;;;;16.82;21.26;94039.06;4987552;28;20046;-61
2023/04/05 10:23:04;;;;;;;8.55;6.90;;;;;;;15.04;21.90;94049.31;4988025;28;20352;-61
2023/04/05 10:25:31;;;;;;;8.63;6.75;;;;;;;16.12;21.24;94054.97;4987591;28;20050;-61
2023/04/05 10:28:34;;;;;;;8.75;7.50;;;;;;;9.40;27.97;94066.28;4988689;28;20038;-61
2023/04/05 10:31:25;;;;;;;9.57;6.70;;;;;;;17.44;21.12;94048.56;5004183;28;20296;-61
2023/04/05 10:34:09;;;;;;;8.20;6.72;;;;;;;17.67;19.60;94038.94;4990634;28;21827;-60
2023/04/05 10:36:44;;;;;;;9.77;8.00;;;;;;;10.40;27.01;94060.97;4991129;28;20042;-61
2023/04/05 10:39:40;;;;;;;9.13;7.20;;;;;;;15.05;22.60;94042.56;4991635;28;20114;-61
2023/04/05 10:42:19;;;;;;;8.52;7.13;;;;;;;13.83;24.28;94055.00;4990688;28;21622;-61
2023/04/05 10:44:51;;;;;;;9.97;7.03;;;;;;;9.80;26.89;94061.22;4990697;28;20643;-61
2023/04/05 10:47:21;;;;;;;8.32;7.20;;;;;;;10.32;26.83;94048.53;4991192;28;20088;-61
2023/04/05 10:49:52;;;;;;;7.75;6.57;;;;;;;15.34;22.75;94045.25;4991253;28;20351;-61
2023/04/05 10:52:21;;;;;;;7.55;6.03;;;;;;;17.60;20.64;94042.75;4990980;28;20038;-61
2023/04/05 10:54:49;;;;;;;10.80;7.50;;;;;;;10.82;25.95;94056.09;4991259;28;20046;-61
2023/04/05 10:57:19;;;;;;;9.57;6.93;;;;;;;13.72;22.78;94048.97;4990947;28;20046;-61
2023/04/05 10:59:48;;;;;;;8.07;6.70;;;;;;;13.26;24.35;94043.38;4991116;28;20056;-61
2023/04/05 11:02:15;;;;;;;8.65;7.05;;;;;;;15.91;22.16;94032.31;4990680;28;20052;-60
2023/04/05 11:04:42;;;;;;;10.18;7.10;;;;;;;15.54;20.58;94039.47;4990912;28;20054;-61
2023/04/05 11:07:09;;;;;;;11.02;8.88;;;;;;;14.96;22.26;94032.19;4991088;28;20053;-61
2023/04/05 11:09:37;;;;;;;9.37;7.17;;;;;;;15.88;21.80;94036.00;4990512;28;20181;-61
2023/04/05 11:12:04;;;;;;;8.25;7.07;;;;;;;14.58;22.56;94039.19;4990659;28;20077;-60
2023/04/05 11:14:34;;;;;;;8.85;7.70;;;;;;;11.80;24.75;94048.66;4986098;28;20096;-60
2023/04/05 11:17:02;;;;;;;8.57;7.03;;;;;;;11.59;25.90;94035.31;4971337;28;20149;-61
2023/04/05 11:19:41;;;;;;;8.95;7.43;;;;;;;8.88;28.09;94041.63;4982900;28;20042;-60
2023/04/05 11:22:08;;;;;;;9.13;7.23;;;;;;;8.16;29.43;94039.25;4990632;28;20535;-60
2023/04/05 11:24:55;;;;;;;9.45;7.80;;;;;;;7.62;30.36;94040.59;4990220;28;20042;-60
2023/04/05 11:27:29;;;;;;;9.43;7.22;;;;;;;8.25;30.10;94035.31;4990388;28;20068;-59
2023/04/05 11:29:58;;;;;;;10.05;7.25;;;;;;;10.77;27.23;94029.13;4990651;28;20038;-60